Terminal Aerodrome Forecast
Issued by NWS

Current Version | Previous Version | Text Only | Print | Product List | Glossary On
Versions: 1 2 3 4 5 6 7 8 9 10 11 12 13 14 15 16 17 18 19 20 21 22 23 24 25 26 27 28 29 30 31 32 33 34 35 36 37
833
FTUS46 KLOX 222354
TAFOXR
TAF
KOXR 222354Z 2300/2324 24010KT P6SM OVC008
     FM230400 VRB03KT 4SM BR OVC004
     FM231600 25008KT P6SM OVC008
     FM232000 26009KT P6SM BKN012=

USA.gov is the U.S. government's official web portal to all federal, state and local government web resources and services.